createdAt,value
2022-10-14T00:00:33.704Z,6.38
2022-10-14T00:03:00.476Z,7.35
2022-10-14T00:05:27.104Z,6.88
2022-10-14T00:07:53.708Z,7.43
2022-10-14T00:10:20.239Z,6.55
2022-10-14T00:12:47.413Z,7.03
2022-10-14T00:15:13.976Z,6.85
2022-10-14T00:17:40.449Z,7.03
2022-10-14T00:20:07.555Z,6.80
2022-10-14T00:22:34.228Z,7.35
2022-10-14T00:25:00.739Z,7.00
2022-10-14T00:27:28.037Z,7.30
2022-10-14T00:29:54.816Z,6.50
2022-10-14T00:32:21.293Z,6.72
2022-10-14T00:34:50.763Z,7.22
2022-10-14T00:37:17.246Z,7.07
2022-10-14T00:39:43.883Z,6.95
2022-10-14T00:42:18.368Z,7.70
2022-10-14T00:44:46.469Z,7.25
2022-10-14T00:47:13.187Z,7.80
2022-10-14T00:49:43.485Z,6.72
2022-10-14T00:52:22.275Z,7.00
2022-10-14T00:55:00.325Z,8.68
2022-10-14T00:57:28.453Z,8.07
2022-10-14T01:00:02.216Z,8.25
2022-10-14T01:02:29.790Z,9.90
2022-10-14T01:04:56.743Z,9.10
2022-10-14T01:07:29.071Z,8.88
2022-10-14T01:10:08.134Z,10.15
2022-10-14T01:12:44.168Z,10.20
2022-10-14T01:15:32.232Z,11.15
2022-10-14T01:18:07.461Z,12.38
2022-10-14T01:20:47.304Z,13.15
2022-10-14T01:23:44.151Z,11.82
2022-10-14T01:26:25.964Z,12.13
2022-10-14T01:29:11.516Z,11.55
2022-10-14T01:31:45.547Z,11.15
2022-10-14T01:34:17.498Z,11.93
2022-10-14T01:37:01.277Z,11.95
2022-10-14T01:39:34.367Z,11.73
2022-10-14T01:42:10.150Z,11.73
2022-10-14T01:44:42.407Z,12.10
2022-10-14T01:47:10.984Z,12.55
2022-10-14T01:49:56.044Z,11.82
2022-10-14T01:52:31.330Z,12.43
2022-10-14T01:55:02.786Z,12.82
2022-10-14T01:57:33.854Z,11.88
2022-10-14T02:00:02.267Z,11.32
2022-10-14T02:02:41.264Z,11.70
2022-10-14T02:05:28.661Z,11.50
2022-10-14T02:08:11.908Z,11.63
2022-10-14T02:11:02.398Z,10.80
2022-10-14T02:13:56.467Z,10.00
2022-10-14T02:16:44.167Z,12.02
2022-10-14T02:19:38.028Z,11.23
2022-10-14T02:22:13.428Z,11.07
2022-10-14T02:24:44.646Z,11.50
2022-10-14T02:27:14.837Z,11.32
2022-10-14T02:29:45.482Z,10.45
2022-10-14T02:32:15.120Z,11.02
2022-10-14T02:34:46.837Z,11.52
2022-10-14T02:37:16.935Z,12.02
2022-10-14T02:39:54.680Z,11.68
2022-10-14T02:42:24.741Z,11.98
2022-10-14T02:44:56.951Z,11.57
2022-10-14T02:47:24.363Z,10.90
2022-10-14T02:49:51.932Z,11.73
2022-10-14T02:52:19.045Z,11.90
2022-10-14T02:54:45.890Z,11.15
2022-10-14T02:57:12.671Z,11.95
2022-10-14T02:59:39.712Z,12.48
2022-10-14T03:02:07.552Z,11.32
2022-10-14T03:04:35.980Z,11.60
2022-10-14T03:07:02.748Z,12.07
2022-10-14T03:09:32.628Z,12.20
2022-10-14T03:11:59.660Z,11.57
2022-10-14T03:14:26.396Z,12.10
2022-10-14T03:16:54.062Z,11.43
2022-10-14T03:19:23.538Z,11.85
2022-10-14T03:21:53.381Z,10.93
2022-10-14T03:24:20.821Z,11.80
2022-10-14T03:26:55.750Z,11.98
2022-10-14T03:29:25.357Z,13.00
2022-10-14T03:32:01.437Z,12.43
2022-10-14T03:34:44.739Z,12.27
2022-10-14T03:37:15.785Z,12.15
2022-10-14T03:39:48.584Z,12.30
2022-10-14T03:42:16.542Z,10.80
2022-10-14T03:44:46.662Z,11.23
2022-10-14T03:47:26.622Z,12.07
2022-10-14T03:49:53.378Z,11.45
2022-10-14T03:52:32.148Z,12.15
2022-10-14T03:55:05.002Z,12.10
2022-10-14T03:57:32.194Z,11.70
2022-10-14T04:00:00.241Z,11.95
2022-10-14T04:02:40.360Z,13.02
2022-10-14T04:05:11.344Z,11.02
2022-10-14T04:07:38.937Z,11.43
2022-10-14T04:10:08.567Z,10.88
2022-10-14T04:12:37.100Z,11.00
2022-10-14T04:15:08.977Z,11.45
2022-10-14T04:17:53.351Z,12.57
2022-10-14T04:20:20.076Z,11.40
2022-10-14T04:22:49.945Z,12.05
2022-10-14T04:25:17.903Z,11.57
2022-10-14T04:27:50.010Z,11.75
2022-10-14T04:30:16.997Z,11.23
2022-10-14T04:32:51.319Z,12.05
2022-10-14T04:35:18.434Z,11.45
2022-10-14T04:37:49.203Z,11.00
2022-10-14T04:40:25.581Z,13.05
2022-10-14T04:42:59.599Z,12.15
2022-10-14T04:45:32.078Z,11.73
2022-10-14T04:48:01.582Z,11.73
2022-10-14T04:50:28.222Z,11.38
2022-10-14T04:53:14.140Z,11.02
2022-10-14T04:56:01.501Z,12.15
2022-10-14T04:58:28.158Z,12.00
2022-10-14T05:00:55.502Z,10.35
2022-10-14T05:03:29.719Z,11.93
2022-10-14T05:05:57.227Z,11.30
2022-10-14T05:08:23.863Z,12.15
2022-10-14T05:10:53.684Z,11.20
2022-10-14T05:13:34.793Z,12.05
2022-10-14T05:16:06.693Z,11.63
2022-10-14T05:18:33.741Z,11.13
2022-10-14T05:21:04.691Z,12.80
2022-10-14T05:23:43.803Z,12.82
2022-10-14T05:26:10.969Z,12.68
2022-10-14T05:28:39.551Z,10.93
2022-10-14T05:31:07.358Z,12.15
2022-10-14T05:33:39.962Z,10.75
2022-10-14T05:36:07.005Z,12.38
2022-10-14T05:38:34.461Z,11.75
2022-10-14T05:41:02.484Z,12.30
2022-10-14T05:43:32.369Z,12.70
2022-10-14T05:46:00.843Z,12.38
2022-10-14T05:48:29.755Z,11.25
2022-10-14T05:51:01.564Z,12.43
2022-10-14T05:53:29.905Z,11.68
2022-10-14T05:56:07.439Z,12.18
2022-10-14T05:58:36.492Z,12.07
2022-10-14T06:01:06.116Z,11.65
2022-10-14T06:03:33.438Z,13.32
2022-10-14T06:06:00.478Z,12.52
2022-10-14T06:08:29.769Z,13.25
2022-10-14T06:10:56.466Z,13.45
2022-10-14T06:13:23.386Z,13.73
2022-10-14T06:15:51.055Z,12.38
2022-10-14T06:18:17.788Z,12.27
2022-10-14T06:20:44.418Z,12.40
2022-10-14T06:23:11.013Z,12.45
2022-10-14T06:25:37.679Z,12.52
2022-10-14T06:28:05.503Z,11.93
2022-10-14T06:30:33.070Z,11.48
2022-10-14T06:32:59.564Z,12.70
2022-10-14T06:35:26.316Z,12.20
2022-10-14T06:37:52.947Z,12.95
2022-10-14T06:40:19.477Z,12.18
2022-10-14T06:42:46.223Z,11.63
2022-10-14T06:45:12.861Z,12.18
2022-10-14T06:47:39.634Z,11.75
2022-10-14T06:50:06.653Z,12.02
2022-10-14T06:52:33.252Z,11.75
2022-10-14T06:54:59.751Z,11.65
2022-10-14T06:57:26.340Z,11.98
2022-10-14T06:59:52.855Z,11.63
2022-10-14T07:02:19.868Z,10.63
2022-10-14T07:04:46.696Z,11.68
2022-10-14T07:07:13.183Z,11.52
2022-10-14T07:09:39.779Z,12.25
2022-10-14T07:12:06.270Z,10.95
2022-10-14T07:14:32.776Z,10.52
2022-10-14T07:17:00.549Z,11.02
2022-10-14T07:19:27.087Z,10.32
2022-10-14T07:21:53.650Z,10.80
2022-10-14T07:24:20.314Z,11.32
2022-10-14T07:26:46.817Z,11.07
2022-10-14T07:29:13.295Z,10.18
2022-10-14T07:31:39.834Z,10.18
2022-10-14T07:34:06.384Z,11.07
2022-10-14T07:36:32.914Z,10.75
2022-10-14T07:38:59.490Z,10.05
2022-10-14T07:41:26.575Z,11.20
2022-10-14T07:43:57.300Z,9.95
2022-10-14T07:46:34.654Z,10.05
2022-10-14T07:49:22.266Z,9.98
2022-10-14T07:51:49.912Z,9.48
2022-10-14T07:54:22.895Z,10.18
2022-10-14T07:56:50.510Z,10.60
2022-10-14T07:59:21.040Z,10.10
2022-10-14T08:01:49.117Z,9.65
2022-10-14T08:04:16.576Z,10.65
2022-10-14T08:06:43.185Z,10.65
2022-10-14T08:09:11.475Z,10.25
2022-10-14T08:11:38.936Z,9.90
2022-10-14T08:14:06.206Z,10.38
2022-10-14T08:16:35.033Z,10.15
2022-10-14T08:19:13.535Z,10.75
2022-10-14T08:21:42.614Z,9.75
2022-10-14T08:24:09.955Z,9.70
2022-10-14T08:26:48.122Z,10.20
2022-10-14T08:29:14.700Z,10.18
2022-10-14T08:31:41.219Z,9.85
2022-10-14T08:34:07.766Z,8.50
2022-10-14T08:36:34.396Z,8.85
2022-10-14T08:39:00.977Z,8.57
2022-10-14T08:41:36.724Z,8.73
2022-10-14T08:44:09.412Z,7.97
2022-10-14T08:46:51.195Z,8.07
2022-10-14T08:49:25.135Z,7.95
2022-10-14T08:52:10.917Z,7.93
2022-10-14T08:54:43.351Z,7.40
2022-10-14T08:57:16.634Z,7.00
2022-10-14T08:59:43.255Z,7.07
2022-10-14T09:02:35.000Z,6.90
2022-10-14T09:05:02.260Z,6.93
2022-10-14T09:07:31.139Z,5.97
2022-10-14T09:10:14.271Z,6.90
2022-10-14T09:12:42.880Z,7.32
2022-10-14T09:15:22.486Z,6.28
2022-10-14T09:17:56.641Z,6.22
2022-10-14T09:20:24.931Z,7.15
2022-10-14T09:23:05.331Z,6.85
2022-10-14T09:25:35.972Z,7.28
2022-10-14T09:28:02.819Z,6.90
2022-10-14T09:30:35.688Z,6.90
2022-10-14T09:33:03.694Z,6.97
2022-10-14T09:35:34.523Z,5.45
2022-10-14T09:38:01.111Z,6.97
2022-10-14T09:40:33.577Z,5.75
2022-10-14T09:43:15.624Z,5.78
2022-10-14T09:46:01.885Z,6.57
2022-10-14T09:48:44.342Z,5.90
2022-10-14T09:51:20.547Z,4.80
2022-10-14T09:53:54.933Z,4.28
2022-10-14T09:56:38.953Z,4.15
2022-10-14T09:59:21.101Z,4.25
2022-10-14T10:01:56.132Z,4.63
2022-10-14T10:04:34.087Z,4.00
2022-10-14T10:07:09.995Z,3.72
2022-10-14T10:09:36.521Z,3.25
2022-10-14T10:12:35.807Z,3.40
2022-10-14T10:15:06.170Z,3.42
2022-10-14T10:17:40.532Z,2.65
2022-10-14T10:20:18.343Z,2.90
2022-10-14T10:22:45.566Z,2.50
2022-10-14T10:25:19.123Z,3.08
2022-10-14T10:27:47.898Z,2.60
2022-10-14T10:30:14.324Z,3.17
2022-10-14T10:32:44.909Z,3.10
2022-10-14T10:35:26.173Z,2.30
2022-10-14T10:38:02.117Z,2.78
2022-10-14T10:40:36.634Z,2.40
2022-10-14T10:43:25.147Z,2.63
2022-10-14T10:46:20.415Z,2.30
2022-10-14T10:48:55.036Z,3.03
2022-10-14T10:51:31.007Z,2.60
2022-10-14T10:54:14.688Z,2.45
2022-10-14T10:56:56.032Z,1.80
2022-10-14T10:59:33.248Z,1.63
2022-10-14T11:02:35.480Z,1.95
2022-10-14T11:05:39.959Z,1.70
2022-10-14T11:08:38.919Z,1.55
2022-10-14T11:11:40.109Z,1.48
2022-10-14T11:14:39.102Z,1.95
2022-10-14T11:17:24.159Z,1.48
2022-10-14T11:20:05.387Z,1.50
2022-10-14T11:22:57.967Z,1.30
2022-10-14T11:25:50.267Z,1.98
2022-10-14T11:28:36.110Z,1.55
2022-10-14T11:31:10.189Z,1.60
2022-10-14T11:33:46.809Z,1.50
2022-10-14T11:36:25.152Z,1.77
2022-10-14T11:39:03.705Z,1.42
2022-10-14T11:41:47.062Z,1.83
2022-10-14T11:44:36.607Z,1.58
2022-10-14T11:47:20.604Z,1.75
2022-10-14T11:49:51.038Z,1.77
2022-10-14T11:52:24.697Z,1.80
2022-10-14T11:54:55.655Z,1.50
2022-10-14T11:57:35.111Z,1.40
2022-10-14T12:00:39.562Z,1.70
2022-10-14T12:03:29.235Z,1.70
2022-10-14T12:06:02.133Z,1.60
2022-10-14T12:08:35.853Z,1.75
2022-10-14T12:11:17.651Z,1.67
2022-10-14T12:13:48.109Z,1.60
2022-10-14T12:16:17.849Z,1.48
2022-10-14T12:18:46.981Z,1.60
2022-10-14T12:21:31.343Z,1.30
2022-10-14T12:24:17.209Z,1.48
2022-10-14T12:26:54.735Z,1.25
2022-10-14T12:29:44.668Z,1.50
2022-10-14T12:32:20.751Z,1.55
2022-10-14T12:35:03.709Z,0.80
2022-10-14T12:37:35.453Z,1.17
2022-10-14T12:40:02.564Z,0.80
2022-10-14T12:43:01.605Z,0.90
2022-10-14T12:45:30.436Z,0.90
2022-10-14T12:48:22.642Z,0.95
2022-10-14T12:50:55.138Z,0.90
2022-10-14T12:53:29.455Z,1.25
2022-10-14T12:55:59.430Z,0.75
2022-10-14T12:58:25.978Z,0.60
2022-10-14T13:00:55.958Z,0.60
2022-10-14T13:03:27.382Z,0.55
2022-10-14T13:06:27.721Z,0.60
2022-10-14T13:09:12.318Z,0.55
2022-10-14T13:11:43.677Z,0.90
2022-10-14T13:14:31.195Z,0.80
2022-10-14T13:16:59.850Z,1.02
2022-10-14T13:19:32.432Z,0.95
2022-10-14T13:22:03.709Z,0.68
2022-10-14T13:24:38.205Z,0.73
2022-10-14T13:27:30.167Z,1.10
2022-10-14T13:30:23.608Z,0.77
2022-10-14T13:32:58.065Z,1.08
2022-10-14T13:35:32.349Z,0.52
2022-10-14T13:38:03.893Z,0.52
2022-10-14T13:40:36.974Z,0.65
2022-10-14T13:43:15.991Z,0.73
2022-10-14T13:45:46.609Z,0.60
2022-10-14T13:48:17.016Z,0.50
2022-10-14T13:50:46.958Z,0.60
2022-10-14T13:53:22.946Z,1.00
2022-10-14T13:55:54.424Z,0.77
2022-10-14T13:58:23.051Z,0.63
2022-10-14T14:00:57.299Z,1.60
2022-10-14T14:03:34.521Z,1.70
2022-10-14T14:06:01.693Z,10.85
2022-10-14T14:08:42.234Z,0.90
2022-10-14T14:11:20.521Z,2.72
2022-10-14T14:13:58.928Z,11.07
2022-10-14T14:16:56.485Z,2.63
2022-10-14T14:19:27.556Z,3.05
2022-10-14T14:22:15.840Z,9.20
2022-10-14T14:24:42.498Z,5.90
2022-10-14T14:27:18.007Z,3.08
2022-10-14T14:29:48.086Z,2.10
2022-10-14T14:32:20.681Z,0.93
2022-10-14T14:34:50.264Z,1.20
2022-10-14T14:37:48.113Z,0.98
2022-10-14T14:40:18.480Z,1.30
2022-10-14T14:42:47.942Z,0.80
2022-10-14T14:45:20.928Z,0.90
2022-10-14T14:47:52.682Z,0.95
2022-10-14T14:50:30.351Z,1.00
2022-10-14T14:53:02.997Z,0.75
2022-10-14T14:55:44.394Z,0.60
2022-10-14T14:58:20.170Z,0.70
2022-10-14T15:00:47.355Z,0.90
2022-10-14T15:03:13.968Z,0.90
2022-10-14T15:05:40.698Z,0.65
2022-10-14T15:08:23.800Z,0.70
2022-10-14T15:10:52.696Z,0.68
2022-10-14T15:13:49.945Z,0.90
2022-10-14T15:16:42.160Z,0.98
2022-10-14T15:19:25.684Z,0.50
2022-10-14T15:22:19.449Z,0.80
2022-10-14T15:24:56.820Z,1.20
2022-10-14T15:27:33.047Z,1.75
2022-10-14T15:30:37.413Z,1.17
2022-10-14T15:33:15.938Z,1.80
2022-10-14T15:35:44.399Z,1.70
2022-10-14T15:38:16.166Z,1.10
2022-10-14T15:40:43.784Z,1.55
2022-10-14T15:43:17.797Z,1.58
2022-10-14T15:46:08.448Z,3.83
2022-10-14T15:48:39.521Z,2.53
2022-10-14T15:51:06.256Z,2.67
2022-10-14T15:53:33.436Z,3.10
2022-10-14T15:56:00.372Z,3.47
2022-10-14T15:58:26.924Z,2.03
2022-10-14T16:00:53.750Z,1.83
2022-10-14T16:03:20.428Z,1.90
2022-10-14T16:05:47.525Z,1.35
2022-10-14T16:08:15.052Z,1.45
2022-10-14T16:10:45.720Z,1.60
2022-10-14T16:13:12.918Z,1.25
2022-10-14T16:16:03.966Z,0.85
2022-10-14T16:18:33.659Z,1.20
2022-10-14T16:21:00.264Z,1.13
2022-10-14T16:23:33.319Z,1.10
2022-10-14T16:26:00.352Z,1.00
2022-10-14T16:28:26.927Z,1.02
2022-10-14T16:30:53.624Z,1.15
2022-10-14T16:33:24.261Z,1.13
2022-10-14T16:35:53.437Z,1.05
2022-10-14T16:38:20.444Z,1.20
2022-10-14T16:40:57.870Z,1.08
2022-10-14T16:43:25.717Z,2.25
2022-10-14T16:45:52.828Z,3.15
2022-10-14T16:48:19.441Z,2.72
2022-10-14T16:50:51.038Z,1.80
2022-10-14T16:53:36.560Z,2.38
2022-10-14T16:56:04.225Z,2.65
2022-10-14T16:58:30.741Z,2.85
2022-10-14T17:00:57.439Z,2.65
2022-10-14T17:03:24.314Z,2.17
2022-10-14T17:05:57.812Z,2.13
2022-10-14T17:08:24.403Z,1.55
2022-10-14T17:10:58.724Z,2.22
2022-10-14T17:13:25.358Z,2.70
2022-10-14T17:16:00.122Z,2.83
2022-10-14T17:18:29.014Z,2.38
2022-10-14T17:21:16.760Z,2.20
2022-10-14T17:23:44.098Z,2.10
2022-10-14T17:26:13.545Z,2.60
2022-10-14T17:28:41.961Z,2.88
2022-10-14T17:31:10.995Z,3.08
2022-10-14T17:33:38.600Z,2.42
2022-10-14T17:36:08.726Z,3.40
2022-10-14T17:38:36.035Z,2.75
2022-10-14T17:41:04.905Z,2.30
2022-10-14T17:43:36.823Z,2.97
2022-10-14T17:46:05.570Z,2.80
2022-10-14T17:48:35.346Z,2.65
2022-10-14T17:51:02.383Z,3.75
2022-10-14T17:53:29.569Z,2.88
2022-10-14T17:55:58.786Z,2.13
2022-10-14T17:58:25.925Z,2.88
2022-10-14T18:00:52.456Z,2.00
2022-10-14T18:03:19.144Z,2.05
2022-10-14T18:05:48.763Z,2.38
2022-10-14T18:08:16.394Z,2.22
2022-10-14T18:10:43.155Z,2.10
2022-10-14T18:13:09.861Z,1.92
2022-10-14T18:15:36.664Z,1.80
2022-10-14T18:18:03.471Z,2.00
2022-10-14T18:20:31.923Z,2.17
2022-10-14T18:23:02.673Z,1.90
2022-10-14T18:25:29.241Z,2.20
2022-10-14T18:27:55.827Z,2.05
2022-10-14T18:30:22.852Z,2.45
2022-10-14T18:32:49.690Z,1.92
2022-10-14T18:35:16.231Z,1.95
2022-10-14T18:37:42.765Z,2.05
2022-10-14T18:40:09.941Z,2.58
2022-10-14T18:42:36.579Z,2.15
2022-10-14T18:45:03.210Z,2.20
2022-10-14T18:47:29.874Z,2.55
2022-10-14T18:49:59.644Z,2.38
2022-10-14T18:52:26.424Z,3.17
2022-10-14T18:54:53.244Z,3.70
2022-10-14T18:57:21.027Z,3.03
2022-10-14T18:59:50.211Z,2.90
2022-10-14T19:02:17.840Z,2.97
2022-10-14T19:04:44.535Z,3.22
2022-10-14T19:07:11.116Z,2.92
2022-10-14T19:09:37.715Z,2.95
2022-10-14T19:12:25.111Z,2.97
2022-10-14T19:14:52.030Z,3.30
2022-10-14T19:17:18.770Z,2.90
2022-10-14T19:19:45.368Z,2.88
2022-10-14T19:22:12.017Z,2.70
2022-10-14T19:24:38.686Z,3.35
2022-10-14T19:27:05.664Z,2.78
2022-10-14T19:29:32.190Z,3.80
2022-10-14T19:31:59.097Z,3.25
2022-10-14T19:34:27.364Z,3.88
2022-10-14T19:36:54.084Z,3.85
2022-10-14T19:39:20.936Z,4.15
2022-10-14T19:41:47.681Z,3.22
2022-10-14T19:44:15.870Z,3.20
2022-10-14T19:46:43.584Z,3.05
2022-10-14T19:49:13.346Z,3.28
2022-10-14T19:51:40.919Z,2.92
2022-10-14T19:54:07.553Z,3.00
2022-10-14T19:56:34.145Z,3.03
2022-10-14T19:59:02.013Z,2.60
2022-10-14T20:01:30.120Z,2.80
2022-10-14T20:03:58.966Z,2.45
2022-10-14T20:06:25.597Z,2.90
2022-10-14T20:08:52.191Z,2.88
2022-10-14T20:11:19.838Z,2.72
2022-10-14T20:13:46.801Z,2.83
2022-10-14T20:16:13.800Z,3.05
2022-10-14T20:18:41.101Z,2.80
2022-10-14T20:21:12.606Z,2.88
2022-10-14T20:23:39.773Z,2.83
2022-10-14T20:26:12.603Z,2.85
2022-10-14T20:28:40.097Z,2.80
2022-10-14T20:31:09.403Z,3.13
2022-10-14T20:33:36.485Z,3.78
2022-10-14T20:36:18.896Z,4.43
2022-10-14T20:38:45.839Z,4.13
2022-10-14T20:41:15.250Z,4.05
2022-10-14T20:43:42.883Z,3.15
2022-10-14T20:46:09.939Z,3.60
2022-10-14T20:48:39.050Z,3.38
2022-10-14T20:51:12.170Z,3.65
2022-10-14T20:56:08.667Z,2.88
2022-10-14T20:58:36.083Z,3.33
2022-10-14T21:01:10.186Z,2.88
2022-10-14T21:03:37.530Z,2.88
2022-10-14T21:06:06.543Z,3.25
2022-10-14T21:08:33.545Z,2.83
2022-10-14T21:11:09.197Z,2.85
2022-10-14T21:13:39.840Z,3.00
2022-10-14T21:16:13.952Z,3.08
2022-10-14T21:18:40.589Z,2.80
2022-10-14T21:21:07.533Z,3.38
2022-10-14T21:23:34.821Z,3.15
2022-10-14T21:26:01.372Z,3.25
2022-10-14T21:28:28.256Z,2.90
2022-10-14T21:30:54.829Z,2.95
2022-10-14T21:33:21.374Z,3.03
2022-10-14T21:35:47.846Z,3.00
2022-10-14T21:38:14.536Z,2.70
2022-10-14T21:40:41.136Z,2.95
2022-10-14T21:43:07.811Z,3.08
2022-10-14T21:45:34.396Z,2.75
2022-10-14T21:48:01.047Z,2.80
2022-10-14T21:50:27.570Z,3.20
2022-10-14T21:52:54.236Z,3.55
2022-10-14T21:55:20.729Z,3.05
2022-10-14T21:57:47.511Z,2.95
2022-10-14T22:00:14.206Z,3.25
2022-10-14T22:02:40.771Z,3.35
2022-10-14T22:05:07.643Z,2.83
2022-10-14T22:07:34.250Z,3.00
2022-10-14T22:10:00.745Z,2.88
2022-10-14T22:12:28.698Z,3.03
2022-10-14T22:14:55.381Z,3.10
2022-10-14T22:17:22.247Z,3.00
2022-10-14T22:19:49.021Z,3.03
2022-10-14T22:22:15.805Z,2.65
2022-10-14T22:24:43.104Z,2.80
2022-10-14T22:27:09.701Z,2.72
2022-10-14T22:29:36.242Z,3.13
2022-10-14T22:32:02.790Z,3.00
2022-10-14T22:34:29.283Z,3.08
2022-10-14T22:36:55.967Z,3.60
2022-10-14T22:39:22.524Z,4.15
2022-10-14T22:41:49.087Z,5.05
2022-10-14T22:44:15.608Z,5.07
2022-10-14T22:46:42.208Z,3.65
2022-10-14T22:49:08.719Z,3.53
2022-10-14T22:51:40.437Z,3.45
2022-10-14T22:54:07.720Z,3.47
2022-10-14T22:56:34.294Z,3.60
2022-10-14T22:59:06.992Z,3.67
2022-10-14T23:01:34.509Z,3.65
2022-10-14T23:04:01.782Z,3.40
2022-10-14T23:06:29.776Z,3.58
2022-10-14T23:08:57.270Z,3.50
2022-10-14T23:11:25.053Z,3.80
2022-10-14T23:13:52.661Z,3.30
2022-10-14T23:16:21.668Z,3.60
2022-10-14T23:18:49.614Z,3.50
2022-10-14T23:21:24.300Z,3.03
2022-10-14T23:23:52.504Z,3.20
2022-10-14T23:26:23.674Z,3.42
2022-10-14T23:28:52.746Z,3.60
2022-10-14T23:31:22.317Z,2.88
2022-10-14T23:33:52.411Z,3.40
2022-10-14T23:36:20.647Z,3.55
2022-10-14T23:38:48.077Z,3.15
2022-10-14T23:41:15.009Z,2.72
2022-10-14T23:43:41.870Z,3.45
2022-10-14T23:46:08.933Z,3.20
2022-10-14T23:48:36.138Z,2.90
2022-10-14T23:51:03.555Z,3.38
2022-10-14T23:53:30.240Z,3.17
2022-10-14T23:55:57.101Z,2.60
2022-10-14T23:58:25.052Z,3.28
